createdAt,value
2022-10-19T00:02:09.089Z,99.10
2022-10-19T00:04:35.853Z,99.00
2022-10-19T00:07:02.445Z,99.00
2022-10-19T00:09:29.288Z,98.90
2022-10-19T00:11:56.176Z,98.70
2022-10-19T00:14:23.991Z,98.50
2022-10-19T00:16:52.594Z,98.50
2022-10-19T00:19:24.534Z,98.10
2022-10-19T00:24:22.980Z,98.00
2022-10-19T00:26:49.628Z,97.70
2022-10-19T00:29:16.599Z,97.40
2022-10-19T00:31:43.289Z,97.40
2022-10-19T00:34:10.237Z,96.80
2022-10-19T00:36:39.357Z,96.80
2022-10-19T00:39:10.745Z,96.80
2022-10-19T00:41:38.523Z,96.80
2022-10-19T00:44:28.163Z,96.50
2022-10-19T00:46:59.958Z,96.20
2022-10-19T00:49:35.759Z,95.70
2022-10-19T00:52:10.495Z,95.70
2022-10-19T00:54:39.739Z,95.50
2022-10-19T00:57:07.958Z,95.50
2022-10-19T00:59:36.215Z,95.20
2022-10-19T01:02:04.849Z,95.10
2022-10-19T01:04:33.840Z,94.80
2022-10-19T01:07:01.800Z,94.80
2022-10-19T01:09:28.411Z,94.90
2022-10-19T01:12:09.912Z,94.70
2022-10-19T01:14:45.186Z,95.00
2022-10-19T01:17:29.764Z,95.00
2022-10-19T01:20:14.432Z,95.30
2022-10-19T01:23:06.516Z,95.50
2022-10-19T01:26:05.494Z,95.40
2022-10-19T01:28:47.367Z,95.70
2022-10-19T01:31:23.931Z,95.70
2022-10-19T01:34:10.758Z,95.20
2022-10-19T01:37:13.361Z,95.40
2022-10-19T01:39:50.107Z,95.40
2022-10-19T01:42:25.214Z,95.30
2022-10-19T01:45:18.168Z,95.40
2022-10-19T01:48:15.472Z,95.70
2022-10-19T01:50:57.013Z,95.70
2022-10-19T01:53:26.602Z,95.80
2022-10-19T01:55:55.679Z,96.00
2022-10-19T01:58:28.778Z,95.90
2022-10-19T02:01:00.437Z,95.60
2022-10-19T02:03:28.894Z,94.60
2022-10-19T02:05:58.028Z,94.70
2022-10-19T02:08:31.518Z,94.90
2022-10-19T02:10:59.785Z,95.10
2022-10-19T02:13:27.687Z,95.30
2022-10-19T02:15:57.402Z,95.50
2022-10-19T02:18:30.797Z,95.60
2022-10-19T02:20:58.160Z,95.50
2022-10-19T02:23:27.652Z,95.50
2022-10-19T02:25:55.883Z,95.50
2022-10-19T02:30:50.621Z,95.20
2022-10-19T02:33:17.607Z,95.50
2022-10-19T02:35:44.537Z,95.70
2022-10-19T02:38:17.861Z,95.60
2022-10-19T02:41:06.179Z,95.20
2022-10-19T02:43:37.027Z,94.90
2022-10-19T02:46:10.594Z,94.00
2022-10-19T02:48:40.007Z,94.10
2022-10-19T02:51:06.707Z,94.50
2022-10-19T02:53:33.438Z,94.50
2022-10-19T02:56:00.118Z,94.60
2022-10-19T02:58:26.704Z,95.00
2022-10-19T03:00:53.302Z,95.30
2022-10-19T03:03:20.340Z,95.70
2022-10-19T03:05:46.960Z,95.10
2022-10-19T03:08:13.545Z,95.10
2022-10-19T03:10:40.146Z,95.10
2022-10-19T03:13:07.074Z,95.20
2022-10-19T03:15:33.656Z,95.00
2022-10-19T03:18:00.277Z,95.10
2022-10-19T03:20:27.101Z,95.40
2022-10-19T03:25:25.308Z,95.80
2022-10-19T03:27:52.024Z,96.50
2022-10-19T03:30:18.684Z,96.40
2022-10-19T03:32:45.327Z,96.40
2022-10-19T03:35:11.963Z,96.10
2022-10-19T03:37:38.773Z,96.40
2022-10-19T03:40:05.815Z,96.50
2022-10-19T03:42:32.416Z,96.70
2022-10-19T03:44:59.077Z,95.80
2022-10-19T03:47:26.018Z,95.70
2022-10-19T03:49:52.716Z,95.60
2022-10-19T03:52:19.911Z,95.70
2022-10-19T03:54:49.669Z,95.60
2022-10-19T03:57:16.265Z,95.60
2022-10-19T03:59:42.938Z,95.50
2022-10-19T04:02:09.623Z,95.60
2022-10-19T04:04:36.262Z,96.10
2022-10-19T04:07:03.137Z,96.10
2022-10-19T04:09:29.826Z,96.40
2022-10-19T04:11:56.432Z,96.50
2022-10-19T04:14:32.798Z,96.40
2022-10-19T04:17:01.605Z,96.30
2022-10-19T04:19:28.786Z,96.40
2022-10-19T04:21:55.391Z,96.40
2022-10-19T04:24:22.227Z,96.50
2022-10-19T04:26:51.650Z,96.40
2022-10-19T04:29:20.086Z,96.40
2022-10-19T04:31:49.262Z,96.40
2022-10-19T04:34:16.337Z,96.40
2022-10-19T04:36:43.775Z,96.40
2022-10-19T04:39:10.490Z,96.40
2022-10-19T04:41:38.311Z,96.50
2022-10-19T04:44:08.984Z,96.50
2022-10-19T04:46:35.766Z,96.50
2022-10-19T04:49:04.239Z,96.40
2022-10-19T04:51:31.140Z,96.40
2022-10-19T04:53:59.604Z,96.40
2022-10-19T04:56:27.382Z,96.40
2022-10-19T04:58:58.840Z,96.50
2022-10-19T05:01:27.497Z,96.40
2022-10-19T05:03:59.119Z,96.50
2022-10-19T05:06:26.039Z,96.40
2022-10-19T05:08:52.966Z,96.40
2022-10-19T05:11:20.197Z,96.40
2022-10-19T05:13:47.060Z,96.40
2022-10-19T05:16:19.647Z,96.10
2022-10-19T05:18:50.855Z,96.40
2022-10-19T05:21:18.947Z,96.40
2022-10-19T05:23:46.075Z,96.40
2022-10-19T05:26:17.380Z,96.40
2022-10-19T05:28:48.642Z,96.40
2022-10-19T05:31:18.028Z,96.40
2022-10-19T05:33:45.205Z,96.40
2022-10-19T05:36:12.704Z,96.40
2022-10-19T05:38:39.565Z,96.40
2022-10-19T05:41:06.258Z,96.40
2022-10-19T05:43:33.011Z,96.40
2022-10-19T05:46:05.461Z,96.40
2022-10-19T05:48:35.743Z,96.40
2022-10-19T05:51:05.075Z,96.30
2022-10-19T05:53:32.886Z,96.40
2022-10-19T05:55:59.610Z,96.40
2022-10-19T05:58:26.450Z,96.40
2022-10-19T06:00:54.041Z,96.50
2022-10-19T06:03:21.994Z,95.60
2022-10-19T06:05:49.427Z,94.50
2022-10-19T06:08:17.660Z,94.10
2022-10-19T06:10:45.573Z,94.70
2022-10-19T06:13:13.383Z,95.10
2022-10-19T06:15:40.707Z,95.20
2022-10-19T06:18:08.599Z,95.50
2022-10-19T06:20:40.116Z,95.50
2022-10-19T06:23:08.312Z,95.50
2022-10-19T06:25:36.205Z,95.70
2022-10-19T06:28:04.561Z,95.60
2022-10-19T06:30:31.192Z,94.40
2022-10-19T06:32:59.215Z,92.90
2022-10-19T06:35:26.028Z,93.00
2022-10-19T06:37:52.654Z,93.20
2022-10-19T06:40:19.302Z,93.70
2022-10-19T06:42:45.932Z,94.10
2022-10-19T06:45:12.668Z,94.20
2022-10-19T06:47:39.570Z,94.10
2022-10-19T06:50:07.313Z,93.80
2022-10-19T06:52:35.736Z,92.90
2022-10-19T06:55:02.968Z,92.10
2022-10-19T06:57:29.779Z,91.90
2022-10-19T06:59:56.368Z,90.80
2022-10-19T07:02:23.901Z,90.40
2022-10-19T07:04:50.484Z,90.30
2022-10-19T07:07:17.194Z,90.50
2022-10-19T07:09:43.911Z,88.70
2022-10-19T07:12:10.864Z,88.60
2022-10-19T07:14:39.670Z,88.60
2022-10-19T07:17:07.689Z,89.60
2022-10-19T07:19:34.964Z,90.20
2022-10-19T07:22:01.809Z,90.20
2022-10-19T07:24:28.471Z,90.80
2022-10-19T07:26:55.599Z,90.50
2022-10-19T07:29:22.428Z,88.70
2022-10-19T07:31:49.232Z,86.70
2022-10-19T07:34:16.219Z,88.50
2022-10-19T07:36:46.017Z,89.00
2022-10-19T07:39:13.148Z,88.80
2022-10-19T07:41:40.125Z,89.20
2022-10-19T07:44:08.171Z,88.70
2022-10-19T07:46:37.222Z,88.70
2022-10-19T07:49:07.064Z,88.70
2022-10-19T07:51:34.209Z,89.70
2022-10-19T07:54:00.757Z,88.70
2022-10-19T07:56:27.635Z,88.70
2022-10-19T07:58:56.403Z,88.10
2022-10-19T08:01:28.228Z,88.40
2022-10-19T08:06:42.409Z,85.20
2022-10-19T08:09:08.991Z,85.90
2022-10-19T08:11:36.057Z,85.20
2022-10-19T08:14:03.194Z,83.50
2022-10-19T08:16:33.963Z,83.10
2022-10-19T08:19:02.977Z,80.90
2022-10-19T08:21:30.094Z,79.80
2022-10-19T08:23:56.823Z,81.20
2022-10-19T08:26:23.598Z,81.60
2022-10-19T08:28:50.192Z,81.00
2022-10-19T08:31:18.902Z,80.90
2022-10-19T08:33:45.845Z,81.00
2022-10-19T08:36:13.453Z,77.30
2022-10-19T08:38:40.545Z,76.60
2022-10-19T08:41:12.939Z,77.30
2022-10-19T08:43:45.969Z,78.50
2022-10-19T08:46:13.012Z,78.40
2022-10-19T08:48:42.964Z,77.40
2022-10-19T08:51:11.647Z,76.50
2022-10-19T08:53:41.485Z,77.00
2022-10-19T08:56:22.116Z,75.20
2022-10-19T08:59:17.928Z,74.10
2022-10-19T09:01:58.711Z,71.00
2022-10-19T09:04:33.605Z,70.50
2022-10-19T09:07:16.255Z,72.80
2022-10-19T09:09:44.332Z,74.10
2022-10-19T09:12:13.599Z,73.20
2022-10-19T09:14:58.861Z,70.00
2022-10-19T09:17:33.729Z,72.70
2022-10-19T09:20:13.829Z,72.60
2022-10-19T09:22:41.615Z,72.50
2022-10-19T09:25:22.025Z,75.60
2022-10-19T09:27:52.177Z,75.20
2022-10-19T09:30:20.122Z,75.90
2022-10-19T09:32:47.576Z,72.70
2022-10-19T09:35:16.837Z,72.80
2022-10-19T09:37:45.436Z,72.80
2022-10-19T09:40:19.996Z,72.90
2022-10-19T09:42:46.644Z,72.90
2022-10-19T09:45:16.322Z,73.00
2022-10-19T09:47:45.835Z,70.40
2022-10-19T09:50:15.222Z,71.40
2022-10-19T09:52:43.156Z,70.70
2022-10-19T09:55:21.987Z,68.00
2022-10-19T09:57:50.664Z,67.80
2022-10-19T10:00:20.899Z,68.30
2022-10-19T10:02:51.561Z,72.50
2022-10-19T10:05:18.726Z,73.00
2022-10-19T10:07:45.410Z,71.90
2022-10-19T10:10:20.208Z,69.00
2022-10-19T10:12:48.037Z,67.70
2022-10-19T10:15:24.972Z,67.90
2022-10-19T10:17:52.220Z,66.70
2022-10-19T10:20:30.231Z,68.90
2022-10-19T10:22:58.606Z,68.70
2022-10-19T10:25:26.748Z,64.30
2022-10-19T10:27:54.862Z,64.40
2022-10-19T10:30:21.400Z,65.40
2022-10-19T10:32:52.611Z,66.80
2022-10-19T10:35:25.365Z,64.40
2022-10-19T10:37:53.088Z,65.80
2022-10-19T10:40:23.293Z,68.50
2022-10-19T10:42:51.463Z,64.40
2022-10-19T10:45:18.036Z,64.40
2022-10-19T10:47:48.295Z,64.90
2022-10-19T10:50:21.493Z,64.50
2022-10-19T10:53:02.291Z,65.90
2022-10-19T10:55:29.641Z,62.40
2022-10-19T10:58:11.743Z,58.30
2022-10-19T11:00:40.279Z,55.20
2022-10-19T11:03:11.988Z,50.70
2022-10-19T11:05:40.631Z,51.20
2022-10-19T11:08:14.470Z,48.20
2022-10-19T11:10:50.312Z,48.60
2022-10-19T11:13:31.454Z,49.90
2022-10-19T11:16:04.922Z,48.90
2022-10-19T11:18:35.475Z,50.90
2022-10-19T11:21:06.232Z,50.90
2022-10-19T11:23:32.829Z,47.40
2022-10-19T11:26:02.577Z,49.40
2022-10-19T11:28:36.722Z,49.00
2022-10-19T11:31:11.530Z,44.50
2022-10-19T11:33:44.139Z,47.40
2022-10-19T11:36:17.192Z,45.20
2022-10-19T11:38:51.701Z,47.20
2022-10-19T11:41:26.806Z,44.20
2022-10-19T11:44:05.564Z,45.10
2022-10-19T11:46:38.381Z,40.10
2022-10-19T11:49:13.805Z,38.30
2022-10-19T11:51:51.618Z,38.70
2022-10-19T11:54:36.869Z,35.30
2022-10-19T11:57:16.087Z,34.30
2022-10-19T11:59:51.806Z,28.30
2022-10-19T12:02:21.219Z,25.40
2022-10-19T12:04:50.905Z,25.20
2022-10-19T12:07:24.606Z,18.40
2022-10-19T12:10:01.670Z,8.70
2022-10-19T12:12:42.507Z,1.00
2022-10-19T12:15:12.047Z,1.00
2022-10-19T12:17:40.783Z,1.00
2022-10-19T12:20:09.491Z,1.00
2022-10-19T12:22:37.670Z,1.00
2022-10-19T12:25:04.461Z,1.00
2022-10-19T12:27:35.952Z,1.00
2022-10-19T12:30:05.648Z,1.00
2022-10-19T12:32:36.400Z,1.00
2022-10-19T12:35:21.647Z,1.00
2022-10-19T12:37:57.450Z,1.00
2022-10-19T12:40:27.879Z,1.00
2022-10-19T12:43:04.877Z,1.00
2022-10-19T12:45:34.264Z,1.00
2022-10-19T12:48:12.909Z,1.00
2022-10-19T12:50:58.026Z,1.00
2022-10-19T12:56:15.050Z,1.00
2022-10-19T12:58:45.061Z,1.00
2022-10-19T13:01:17.657Z,1.00
2022-10-19T13:03:45.007Z,1.00
2022-10-19T13:06:13.352Z,1.00
2022-10-19T13:08:45.893Z,1.00
2022-10-19T13:11:15.084Z,1.40
2022-10-19T13:13:51.025Z,3.50
2022-10-19T13:16:29.729Z,4.70
2022-10-19T13:18:59.315Z,2.30
2022-10-19T13:21:44.900Z,1.00
2022-10-19T13:24:23.673Z,1.00
2022-10-19T13:26:59.489Z,1.00
2022-10-19T13:29:27.019Z,1.00
2022-10-19T13:31:53.793Z,1.00
2022-10-19T13:34:20.571Z,1.00
2022-10-19T13:37:01.984Z,1.00
2022-10-19T13:39:29.742Z,1.00
2022-10-19T13:41:57.261Z,1.00
2022-10-19T13:44:30.785Z,1.00
2022-10-19T13:47:32.797Z,1.00
2022-10-19T13:50:25.089Z,1.00
2022-10-19T13:52:59.170Z,1.00
2022-10-19T13:55:50.057Z,1.00
2022-10-19T13:58:57.589Z,1.00
2022-10-19T14:01:55.452Z,1.00
2022-10-19T14:04:29.241Z,1.00
2022-10-19T14:07:13.509Z,1.00
2022-10-19T14:10:06.455Z,1.00
2022-10-19T14:12:36.661Z,1.00
2022-10-19T14:15:32.748Z,1.00
2022-10-19T14:18:02.385Z,1.00
2022-10-19T14:20:37.837Z,1.00
2022-10-19T14:23:24.024Z,1.00
2022-10-19T14:26:00.698Z,1.00
2022-10-19T14:28:28.290Z,1.00
2022-10-19T14:31:08.267Z,1.00
2022-10-19T14:33:45.806Z,1.00
2022-10-19T14:36:19.718Z,1.00
2022-10-19T14:38:48.378Z,1.00
2022-10-19T14:41:40.008Z,1.00
2022-10-19T14:44:37.530Z,1.00
2022-10-19T14:47:27.093Z,1.00
2022-10-19T14:49:53.796Z,1.00
2022-10-19T14:55:04.967Z,1.00
2022-10-19T14:57:36.683Z,1.00
2022-10-19T15:00:14.658Z,1.00
2022-10-19T15:03:04.047Z,1.00
2022-10-19T15:05:34.807Z,1.00
2022-10-19T15:08:19.770Z,1.00
2022-10-19T15:10:48.211Z,1.00
2022-10-19T15:13:25.123Z,1.00
2022-10-19T15:15:53.395Z,1.00
2022-10-19T15:18:44.151Z,1.00
2022-10-19T15:21:14.823Z,1.00
2022-10-19T15:23:44.691Z,15.60
2022-10-19T15:26:40.731Z,1.00
2022-10-19T15:29:23.579Z,1.00
2022-10-19T15:31:52.413Z,1.00
2022-10-19T15:34:29.290Z,3.20
2022-10-19T15:36:58.339Z,4.80
2022-10-19T15:39:38.955Z,6.10
2022-10-19T15:42:38.116Z,6.10
2022-10-19T15:45:35.110Z,6.40
2022-10-19T15:48:10.578Z,9.30
2022-10-19T15:50:42.390Z,10.70
2022-10-19T15:53:08.997Z,11.50
2022-10-19T15:55:35.854Z,11.30
2022-10-19T15:58:02.538Z,13.70
2022-10-19T16:00:30.784Z,15.20
2022-10-19T16:02:57.382Z,15.10
2022-10-19T16:05:24.457Z,15.80
2022-10-19T16:07:51.132Z,15.90
2022-10-19T16:10:21.106Z,16.80
2022-10-19T16:12:47.766Z,17.70
2022-10-19T16:15:18.477Z,19.10
2022-10-19T16:17:48.145Z,19.40
2022-10-19T16:20:15.539Z,22.80
2022-10-19T16:22:43.403Z,24.00
2022-10-19T16:25:10.923Z,24.60
2022-10-19T16:27:38.183Z,26.60
2022-10-19T16:30:06.482Z,28.30
2022-10-19T16:32:33.215Z,28.70
2022-10-19T16:34:59.876Z,29.80
2022-10-19T16:37:27.208Z,31.60
2022-10-19T16:39:53.804Z,33.00
2022-10-19T16:42:20.580Z,32.90
2022-10-19T16:44:47.124Z,33.70
2022-10-19T16:47:13.823Z,35.40
2022-10-19T16:49:40.407Z,36.80
2022-10-19T16:52:06.998Z,36.30
2022-10-19T16:54:33.557Z,36.00
2022-10-19T16:57:00.160Z,38.30
2022-10-19T16:59:26.785Z,39.50
2022-10-19T17:01:53.906Z,40.30
2022-10-19T17:04:20.669Z,39.50
2022-10-19T17:06:47.269Z,40.50
2022-10-19T17:12:01.285Z,37.90
2022-10-19T17:14:28.005Z,38.10
2022-10-19T17:16:54.609Z,40.30
2022-10-19T17:19:21.223Z,40.00
2022-10-19T17:21:49.455Z,40.80
2022-10-19T17:24:21.766Z,42.00
2022-10-19T17:26:50.759Z,43.30
2022-10-19T17:29:17.996Z,43.20
2022-10-19T17:31:45.007Z,43.20
2022-10-19T17:34:12.096Z,43.30
2022-10-19T17:36:45.872Z,44.60
2022-10-19T17:39:19.276Z,44.10
2022-10-19T17:41:46.997Z,44.80
2022-10-19T17:44:14.213Z,47.20
2022-10-19T17:46:40.844Z,47.40
2022-10-19T17:49:07.492Z,48.20
2022-10-19T17:51:35.581Z,48.80
2022-10-19T17:54:05.480Z,49.60
2022-10-19T17:56:32.397Z,50.90
2022-10-19T17:58:59.476Z,51.20
2022-10-19T18:01:27.266Z,52.00
2022-10-19T18:03:54.013Z,51.60
2022-10-19T18:06:25.487Z,53.00
2022-10-19T18:08:55.074Z,53.10
2022-10-19T18:11:30.203Z,53.00
2022-10-19T18:14:00.560Z,52.90
2022-10-19T18:16:32.817Z,51.40
2022-10-19T18:19:01.403Z,51.70
2022-10-19T18:21:32.411Z,52.90
2022-10-19T18:24:01.153Z,52.90
2022-10-19T18:26:30.026Z,52.90
2022-10-19T18:28:58.207Z,52.80
2022-10-19T18:31:30.521Z,52.70
2022-10-19T18:34:02.080Z,52.70
2022-10-19T18:36:29.614Z,52.60
2022-10-19T18:38:59.079Z,52.50
2022-10-19T18:41:26.696Z,52.50
2022-10-19T18:43:55.929Z,52.50
2022-10-19T18:46:23.770Z,52.50
2022-10-19T18:48:50.742Z,52.40
2022-10-19T18:51:19.221Z,50.70
2022-10-19T18:53:46.933Z,49.90
2022-10-19T18:56:15.914Z,49.70
2022-10-19T18:58:43.432Z,49.90
2022-10-19T19:01:10.041Z,51.00
2022-10-19T19:03:38.704Z,52.20
2022-10-19T19:06:08.318Z,50.20
2022-10-19T19:08:35.416Z,50.40
2022-10-19T19:11:13.912Z,52.10
2022-10-19T19:13:42.491Z,52.10
2022-10-19T19:16:09.406Z,52.90
2022-10-19T19:18:36.329Z,53.70
2022-10-19T19:21:04.800Z,54.20
2022-10-19T19:23:31.462Z,55.40
2022-10-19T19:25:58.212Z,56.00
2022-10-19T19:28:25.138Z,56.90
2022-10-19T19:30:52.003Z,56.70
2022-10-19T19:33:18.629Z,57.50
2022-10-19T19:35:46.809Z,58.60
2022-10-19T19:38:14.485Z,59.80
2022-10-19T19:40:43.320Z,59.80
2022-10-19T19:43:10.766Z,60.10
2022-10-19T19:45:38.403Z,58.80
2022-10-19T19:48:06.143Z,59.10
2022-10-19T19:50:33.650Z,59.80
2022-10-19T19:53:00.710Z,61.40
2022-10-19T19:55:28.130Z,61.40
2022-10-19T19:57:55.517Z,61.30
2022-10-19T20:00:23.833Z,61.20
2022-10-19T20:02:55.520Z,61.10
2022-10-19T20:05:23.096Z,61.10
2022-10-19T20:07:50.318Z,61.00
2022-10-19T20:10:17.061Z,61.20
2022-10-19T20:12:45.366Z,61.10
2022-10-19T20:15:14.415Z,61.00
2022-10-19T20:17:41.849Z,62.00
2022-10-19T20:20:09.913Z,64.10
2022-10-19T20:22:36.894Z,63.20
2022-10-19T20:25:04.393Z,62.80
2022-10-19T20:27:34.295Z,63.20
2022-10-19T20:30:01.176Z,62.70
2022-10-19T20:32:28.688Z,62.00
2022-10-19T20:34:55.512Z,60.70
2022-10-19T20:37:22.630Z,61.40
2022-10-19T20:39:49.263Z,63.00
2022-10-19T20:42:17.116Z,62.70
2022-10-19T20:44:44.383Z,63.80
2022-10-19T20:47:11.689Z,64.90
2022-10-19T20:49:38.569Z,65.10
2022-10-19T20:52:05.192Z,65.80
2022-10-19T20:54:31.874Z,65.60
2022-10-19T20:56:58.840Z,65.60
2022-10-19T20:59:27.620Z,65.40
2022-10-19T21:01:56.946Z,64.50
2022-10-19T21:04:25.575Z,64.30
2022-10-19T21:06:52.829Z,65.80
2022-10-19T21:09:21.572Z,65.70
2022-10-19T21:11:52.719Z,64.80
2022-10-19T21:14:28.692Z,64.70
2022-10-19T21:16:57.515Z,64.80
2022-10-19T21:19:25.672Z,65.50
2022-10-19T21:21:56.890Z,65.90
2022-10-19T21:24:29.364Z,66.00
2022-10-19T21:26:56.188Z,66.30
2022-10-19T21:29:22.927Z,65.60
2022-10-19T21:31:52.043Z,66.00
2022-10-19T21:34:24.708Z,65.80
2022-10-19T21:36:51.824Z,66.20
2022-10-19T21:39:19.171Z,66.30
2022-10-19T21:41:46.316Z,66.40
2022-10-19T21:44:14.033Z,66.80
2022-10-19T21:46:42.913Z,66.40
2022-10-19T21:49:11.961Z,66.60
2022-10-19T21:51:45.059Z,66.80
2022-10-19T21:54:14.702Z,66.40
2022-10-19T21:56:41.816Z,65.40
2022-10-19T21:59:08.615Z,64.60
2022-10-19T22:01:38.698Z,65.90
2022-10-19T22:04:12.709Z,66.20
2022-10-19T22:06:40.323Z,67.20
2022-10-19T22:09:09.199Z,68.10
2022-10-19T22:11:36.097Z,67.50
2022-10-19T22:14:03.869Z,68.30
2022-10-19T22:16:31.925Z,68.70
2022-10-19T22:18:58.901Z,68.20
2022-10-19T22:21:30.852Z,66.80
2022-10-19T22:24:02.917Z,65.60
2022-10-19T22:26:35.699Z,66.00
2022-10-19T22:29:03.589Z,64.50
2022-10-19T22:31:31.982Z,64.20
2022-10-19T22:34:01.413Z,64.20
2022-10-19T22:36:28.189Z,63.90
2022-10-19T22:38:55.141Z,64.60
2022-10-19T22:41:21.817Z,65.40
2022-10-19T22:43:48.495Z,65.90
2022-10-19T22:46:15.096Z,68.00
2022-10-19T22:48:41.708Z,69.00
2022-10-19T22:51:08.414Z,70.90
2022-10-19T22:53:35.132Z,71.30
2022-10-19T22:56:02.266Z,70.40
2022-10-19T22:58:29.088Z,70.90
2022-10-19T23:01:15.524Z,70.10
2022-10-19T23:03:42.343Z,69.60
2022-10-19T23:06:11.140Z,68.90
2022-10-19T23:08:37.779Z,68.80
2022-10-19T23:11:04.860Z,69.40
2022-10-19T23:13:31.545Z,68.80
2022-10-19T23:15:58.183Z,69.00
2022-10-19T23:18:24.829Z,70.70
2022-10-19T23:20:59.885Z,70.90
2022-10-19T23:23:26.900Z,70.00
2022-10-19T23:26:01.467Z,69.40
2022-10-19T23:28:28.687Z,68.60
2022-10-19T23:30:57.097Z,68.60
2022-10-19T23:33:24.153Z,68.60
2022-10-19T23:35:50.797Z,68.60
2022-10-19T23:38:17.690Z,68.60
2022-10-19T23:40:44.932Z,68.50
2022-10-19T23:43:11.824Z,68.60
2022-10-19T23:45:41.455Z,68.40
2022-10-19T23:48:08.151Z,68.40
2022-10-19T23:50:34.821Z,68.40
2022-10-19T23:53:01.405Z,68.40
2022-10-19T23:55:28.106Z,68.30
2022-10-19T23:57:54.711Z,68.70
